THY3UQ LTAC-LTFM
Flight info
| Callsign | THY3UQ |
|---|---|
| Flight time | 0h 33m |
| Altitude | 28000 |
| Route | YAVRU A4 ERSEN |
| Aircraft | A321/M-SDE3FGHIRWY/LB1 |
Departure
| Time | 2026-05-05 01:20 |
|---|---|
| Airport | Esenboğa International Airport (LTAC) |
Arrival
| Time | 2026-05-05 01:53 |
|---|---|
| Airport | İstanbul Airport (LTFM) |
| Time | Latitude | Longitude | Altitude | Speed | Heading |
|---|---|---|---|---|---|
| 2026-05-05 00:47 | 40.11686 | 32.99359 | 3113 ft | 0 kts | 164° |
| 2026-05-05 01:11 | 40.11704 | 32.99352 | 3113 ft | 4 kts | 164° |
| 2026-05-05 01:11 | 40.11730 | 32.99342 | 3113 ft | 3 kts | 163° |
| 2026-05-05 01:11 | 40.11750 | 32.99336 | 3113 ft | 4 kts | 199° |
| 2026-05-05 01:12 | 40.11762 | 32.99353 | 3113 ft | 4 kts | 263° |
| 2026-05-05 01:12 | 40.11765 | 32.99384 | 3113 ft | 1 kts | 256° |
| 2026-05-05 01:12 | 40.11765 | 32.99385 | 3113 ft | 0 kts | 256° |
| 2026-05-05 01:15 | 40.11760 | 32.99363 | 3113 ft | 6 kts | 256° |
| 2026-05-05 01:15 | 40.11743 | 32.99284 | 3113 ft | 11 kts | 250° |
| 2026-05-05 01:15 | 40.11709 | 32.99181 | 3113 ft | 13 kts | 244° |
| 2026-05-05 01:15 | 40.11658 | 32.99070 | 3113 ft | 15 kts | 236° |
| 2026-05-05 01:16 | 40.11631 | 32.98941 | 3113 ft | 15 kts | 291° |
| 2026-05-05 01:16 | 40.11680 | 32.98847 | 3113 ft | 11 kts | 307° |
| 2026-05-05 01:16 | 40.11729 | 32.98761 | 3112 ft | 12 kts | 306° |
| 2026-05-05 01:16 | 40.11783 | 32.98666 | 3113 ft | 14 kts | 306° |
| 2026-05-05 01:17 | 40.11842 | 32.98557 | 3113 ft | 15 kts | 306° |
| 2026-05-05 01:17 | 40.11887 | 32.98487 | 3113 ft | 7 kts | 336° |
| 2026-05-05 01:17 | 40.11936 | 32.98517 | 3113 ft | 7 kts | 37° |
| 2026-05-05 01:17 | 40.11948 | 32.98528 | 3113 ft | 0 kts | 36° |
| 2026-05-05 01:19 | 40.11949 | 32.98530 | 3113 ft | 1 kts | 36° |
| 2026-05-05 01:19 | 40.12019 | 32.98597 | 3114 ft | 41 kts | 36° |
| 2026-05-05 01:19 | 40.12455 | 32.99009 | 3119 ft | 111 kts | 36° |
| 2026-05-05 01:19 | 40.13243 | 32.99766 | 3127 ft | 168 kts | 35° |
| 2026-05-05 01:20 | 40.14302 | 33.00744 | 3371 ft | 195 kts | 36° |
| 2026-05-05 01:20 | 40.15390 | 33.01816 | 4096 ft | 199 kts | 37° |
| 2026-05-05 01:20 | 40.16485 | 33.02954 | 4799 ft | 204 kts | 38° |
| 2026-05-05 01:20 | 40.17625 | 33.04167 | 5211 ft | 218 kts | 38° |
| 2026-05-05 01:21 | 40.18853 | 33.05489 | 5498 ft | 241 kts | 38° |
| 2026-05-05 01:21 | 40.20200 | 33.06864 | 6167 ft | 247 kts | 29° |
| 2026-05-05 01:21 | 40.21808 | 33.07569 | 6971 ft | 246 kts | 3° |
| 2026-05-05 01:21 | 40.23470 | 33.07192 | 7780 ft | 247 kts | 333° |
| 2026-05-05 01:22 | 40.24785 | 33.05666 | 8258 ft | 265 kts | 304° |
| 2026-05-05 01:22 | 40.25703 | 33.03500 | 8780 ft | 278 kts | 300° |
| 2026-05-05 01:22 | 40.26711 | 33.01300 | 9463 ft | 284 kts | 305° |
| 2026-05-05 01:22 | 40.27870 | 32.99188 | 10166 ft | 289 kts | 308° |
| 2026-05-05 01:23 | 40.29523 | 32.96435 | 10437 ft | 318 kts | 310° |
| 2026-05-05 01:23 | 40.32485 | 32.91689 | 11212 ft | 346 kts | 310° |
| 2026-05-05 01:23 | 40.35096 | 32.86333 | 12583 ft | 356 kts | 291° |
| 2026-05-05 01:23 | 40.36310 | 32.79953 | 13900 ft | 365 kts | 285° |
| 2026-05-05 01:24 | 40.37508 | 32.73501 | 15077 ft | 372 kts | 286° |
| 2026-05-05 01:24 | 40.38780 | 32.66768 | 16323 ft | 379 kts | 286° |
| 2026-05-05 01:24 | 40.40044 | 32.59994 | 17522 ft | 386 kts | 286° |
| 2026-05-05 01:24 | 40.41305 | 32.53180 | 18645 ft | 392 kts | 286° |
| 2026-05-05 01:25 | 40.42617 | 32.46086 | 19730 ft | 398 kts | 286° |
| 2026-05-05 01:25 | 40.43911 | 32.39056 | 20837 ft | 403 kts | 286° |
| 2026-05-05 01:25 | 40.45223 | 32.31853 | 21917 ft | 409 kts | 287° |
| 2026-05-05 01:25 | 40.46551 | 32.24544 | 22934 ft | 414 kts | 287° |
| 2026-05-05 01:26 | 40.48169 | 32.17277 | 23825 ft | 415 kts | 296° |
| 2026-05-05 01:26 | 40.50297 | 32.10168 | 24626 ft | 420 kts | 297° |
| 2026-05-05 01:26 | 40.52429 | 32.02964 | 25436 ft | 425 kts | 298° |
| 2026-05-05 01:26 | 40.54573 | 31.95690 | 26234 ft | 429 kts | 298° |
| 2026-05-05 01:27 | 40.56758 | 31.88368 | 27016 ft | 432 kts | 299° |
| 2026-05-05 01:27 | 40.58871 | 31.80918 | 27795 ft | 438 kts | 297° |
| 2026-05-05 01:27 | 40.60774 | 31.73317 | 27960 ft | 428 kts | 296° |
| 2026-05-05 01:27 | 40.62538 | 31.65881 | 27974 ft | 424 kts | 296° |
| 2026-05-05 01:28 | 40.64340 | 31.58509 | 27985 ft | 423 kts | 296° |
| 2026-05-05 01:28 | 40.66169 | 31.51133 | 27989 ft | 423 kts | 296° |
| 2026-05-05 01:28 | 40.67388 | 31.46184 | 27981 ft | 431 kts | 296° |
| 2026-05-05 01:28 | 40.69196 | 31.38760 | 27992 ft | 423 kts | 296° |
| 2026-05-05 01:29 | 40.70991 | 31.31394 | 27991 ft | 422 kts | 296° |
| 2026-05-05 01:29 | 40.72778 | 31.24041 | 28005 ft | 422 kts | 296° |
| 2026-05-05 01:29 | 40.74565 | 31.16662 | 28000 ft | 422 kts | 296° |
| 2026-05-05 01:29 | 40.76350 | 31.09285 | 27996 ft | 422 kts | 296° |
| 2026-05-05 01:30 | 40.78134 | 31.01915 | 27995 ft | 422 kts | 296° |
| 2026-05-05 01:30 | 40.79912 | 30.94534 | 27998 ft | 423 kts | 296° |
| 2026-05-05 01:30 | 40.81650 | 30.87208 | 27697 ft | 411 kts | 296° |
| 2026-05-05 01:30 | 40.83357 | 30.80038 | 27148 ft | 407 kts | 296° |
| 2026-05-05 01:31 | 40.85092 | 30.72939 | 26626 ft | 405 kts | 296° |
| 2026-05-05 01:31 | 40.86844 | 30.65880 | 26115 ft | 403 kts | 296° |
| 2026-05-05 01:31 | 40.88577 | 30.58876 | 25618 ft | 400 kts | 296° |
| 2026-05-05 01:31 | 40.90295 | 30.51877 | 25092 ft | 402 kts | 295° |
| 2026-05-05 01:32 | 40.92010 | 30.44845 | 24365 ft | 401 kts | 295° |
| 2026-05-05 01:32 | 40.93710 | 30.37864 | 23675 ft | 397 kts | 295° |
| 2026-05-05 01:32 | 40.95399 | 30.30942 | 22868 ft | 393 kts | 295° |
| 2026-05-05 01:32 | 40.97053 | 30.24094 | 22059 ft | 388 kts | 294° |
| 2026-05-05 01:33 | 40.98685 | 30.17328 | 21280 ft | 383 kts | 294° |
| 2026-05-05 01:33 | 41.00278 | 30.10735 | 20521 ft | 379 kts | 294° |
| 2026-05-05 01:33 | 41.01868 | 30.04120 | 19777 ft | 375 kts | 294° |
| 2026-05-05 01:33 | 41.03439 | 29.97565 | 18968 ft | 371 kts | 293° |
| 2026-05-05 01:34 | 41.04411 | 29.93500 | 18438 ft | 368 kts | 292° |
| 2026-05-05 01:34 | 41.05181 | 29.90275 | 18051 ft | 366 kts | 292° |
| 2026-05-05 01:34 | 41.05943 | 29.87070 | 17644 ft | 364 kts | 292° |
| 2026-05-05 01:34 | 41.06702 | 29.83877 | 17244 ft | 362 kts | 292° |
| 2026-05-05 01:35 | 41.07452 | 29.80712 | 16849 ft | 359 kts | 292° |
| 2026-05-05 01:35 | 41.08199 | 29.77559 | 16451 ft | 357 kts | 292° |
| 2026-05-05 01:35 | 41.08943 | 29.74431 | 16073 ft | 355 kts | 292° |
| 2026-05-05 01:35 | 41.09683 | 29.71320 | 15693 ft | 353 kts | 292° |
| 2026-05-05 01:36 | 41.10416 | 29.68227 | 15330 ft | 351 kts | 291° |
| 2026-05-05 01:36 | 41.11142 | 29.65147 | 14950 ft | 349 kts | 291° |
| 2026-05-05 01:36 | 41.11861 | 29.62080 | 14586 ft | 347 kts | 291° |
| 2026-05-05 01:36 | 41.12566 | 29.59028 | 14224 ft | 346 kts | 289° |
| 2026-05-05 01:37 | 41.12815 | 29.55841 | 13864 ft | 350 kts | 269° |
| 2026-05-05 01:37 | 41.12231 | 29.52720 | 13487 ft | 351 kts | 248° |
| 2026-05-05 01:37 | 41.11108 | 29.49872 | 13145 ft | 346 kts | 244° |
| 2026-05-05 01:37 | 41.09977 | 29.47089 | 12802 ft | 341 kts | 244° |
| 2026-05-05 01:38 | 41.08863 | 29.44349 | 12487 ft | 333 kts | 244° |
| 2026-05-05 01:38 | 41.07795 | 29.41724 | 12221 ft | 315 kts | 244° |
| 2026-05-05 01:38 | 41.06775 | 29.39221 | 11963 ft | 304 kts | 244° |
| 2026-05-05 01:38 | 41.05782 | 29.36772 | 11717 ft | 300 kts | 245° |
| 2026-05-05 01:39 | 41.04812 | 29.34379 | 11427 ft | 290 kts | 245° |
| 2026-05-05 01:39 | 41.03863 | 29.32053 | 11144 ft | 283 kts | 244° |
| 2026-05-05 01:39 | 41.02933 | 29.29780 | 10847 ft | 280 kts | 244° |
| 2026-05-05 01:39 | 41.02015 | 29.27533 | 10591 ft | 273 kts | 245° |
| 2026-05-05 01:40 | 41.01123 | 29.25344 | 10293 ft | 268 kts | 245° |
| 2026-05-05 01:40 | 41.00246 | 29.23192 | 10008 ft | 263 kts | 245° |
| 2026-05-05 01:40 | 40.99381 | 29.21069 | 9687 ft | 261 kts | 245° |
| 2026-05-05 01:40 | 40.98522 | 29.18961 | 9362 ft | 260 kts | 245° |
| 2026-05-05 01:41 | 40.97666 | 29.16861 | 9043 ft | 259 kts | 245° |
| 2026-05-05 01:41 | 40.96818 | 29.14769 | 8721 ft | 257 kts | 248° |
| 2026-05-05 01:41 | 40.96347 | 29.12549 | 8412 ft | 247 kts | 271° |
| 2026-05-05 01:41 | 40.96306 | 29.10284 | 8114 ft | 245 kts | 276° |
| 2026-05-05 01:42 | 40.96310 | 29.08065 | 7853 ft | 238 kts | 276° |
| 2026-05-05 01:42 | 40.96305 | 29.05923 | 7658 ft | 228 kts | 276° |
| 2026-05-05 01:42 | 40.96291 | 29.03829 | 7490 ft | 227 kts | 276° |
| 2026-05-05 01:42 | 40.96268 | 29.01776 | 7315 ft | 226 kts | 276° |
| 2026-05-05 01:43 | 40.96237 | 28.99703 | 7138 ft | 225 kts | 276° |
| 2026-05-05 01:43 | 40.96200 | 28.97628 | 6958 ft | 225 kts | 276° |
| 2026-05-05 01:43 | 40.96161 | 28.95565 | 6788 ft | 224 kts | 276° |
| 2026-05-05 01:43 | 40.96119 | 28.93507 | 6624 ft | 223 kts | 276° |
| 2026-05-05 01:44 | 40.96074 | 28.91457 | 6494 ft | 223 kts | 276° |
| 2026-05-05 01:44 | 40.96024 | 28.89409 | 6379 ft | 222 kts | 276° |
| 2026-05-05 01:44 | 40.95973 | 28.87369 | 6274 ft | 222 kts | 276° |
| 2026-05-05 01:44 | 40.95926 | 28.85325 | 6158 ft | 222 kts | 276° |
| 2026-05-05 01:45 | 40.95881 | 28.83285 | 6091 ft | 222 kts | 276° |
| 2026-05-05 01:45 | 40.95844 | 28.81242 | 6041 ft | 222 kts | 276° |
| 2026-05-05 01:45 | 40.95812 | 28.79203 | 6022 ft | 221 kts | 277° |
| 2026-05-05 01:45 | 40.96045 | 28.77243 | 5985 ft | 212 kts | 296° |
| 2026-05-05 01:46 | 40.96719 | 28.75566 | 5967 ft | 203 kts | 314° |
| 2026-05-05 01:46 | 40.97719 | 28.74297 | 5860 ft | 196 kts | 330° |
| 2026-05-05 01:46 | 40.98924 | 28.73521 | 5681 ft | 191 kts | 347° |
| 2026-05-05 01:46 | 41.00223 | 28.73275 | 5445 ft | 188 kts | 1° |
| 2026-05-05 01:47 | 41.01530 | 28.73252 | 5207 ft | 188 kts | 1° |
| 2026-05-05 01:47 | 41.02838 | 28.73228 | 4963 ft | 188 kts | 1° |
| 2026-05-05 01:47 | 41.04144 | 28.73203 | 4700 ft | 188 kts | 1° |
| 2026-05-05 01:47 | 41.05450 | 28.73177 | 4440 ft | 188 kts | 1° |
| 2026-05-05 01:48 | 41.06760 | 28.73152 | 4178 ft | 188 kts | 1° |
| 2026-05-05 01:48 | 41.08029 | 28.73127 | 3922 ft | 177 kts | 1° |
| 2026-05-05 01:48 | 41.09230 | 28.73104 | 3689 ft | 170 kts | 1° |
| 2026-05-05 01:48 | 41.10405 | 28.73081 | 3468 ft | 168 kts | 1° |
| 2026-05-05 01:49 | 41.11577 | 28.73059 | 3243 ft | 168 kts | 1° |
| 2026-05-05 01:49 | 41.12743 | 28.73036 | 3006 ft | 167 kts | 1° |
| 2026-05-05 01:49 | 41.13908 | 28.73014 | 2795 ft | 167 kts | 0° |
| 2026-05-05 01:49 | 41.15048 | 28.72992 | 2558 ft | 162 kts | 359° |
| 2026-05-05 01:50 | 41.16112 | 28.72971 | 2361 ft | 145 kts | 359° |
| 2026-05-05 01:50 | 41.17087 | 28.72953 | 2178 ft | 137 kts | 359° |
| 2026-05-05 01:50 | 41.18026 | 28.72934 | 1978 ft | 134 kts | 358° |
| 2026-05-05 01:50 | 41.18953 | 28.72916 | 1798 ft | 133 kts | 358° |
| 2026-05-05 01:51 | 41.19876 | 28.72899 | 1611 ft | 132 kts | 358° |
| 2026-05-05 01:51 | 41.20794 | 28.72885 | 1428 ft | 133 kts | 359° |
| 2026-05-05 01:51 | 41.21736 | 28.72893 | 1223 ft | 137 kts | 358° |
| 2026-05-05 01:51 | 41.22694 | 28.72873 | 998 ft | 139 kts | 356° |
| 2026-05-05 01:52 | 41.23665 | 28.72832 | 880 ft | 141 kts | 356° |
| 2026-05-05 01:52 | 41.24658 | 28.72816 | 687 ft | 144 kts | 356° |
| 2026-05-05 01:52 | 41.25664 | 28.72790 | 468 ft | 145 kts | 356° |
| 2026-05-05 01:52 | 41.26668 | 28.72767 | 351 ft | 138 kts | 356° |
| 2026-05-05 01:53 | 41.27512 | 28.72742 | 332 ft | 101 kts | 359° |
| 2026-05-05 01:53 | 41.28042 | 28.72732 | 334 ft | 51 kts | 359° |
| 2026-05-05 01:53 | 41.28267 | 28.72746 | 333 ft | 26 kts | 11° |
| 2026-05-05 01:53 | 41.28407 | 28.72832 | 332 ft | 15 kts | 28° |
| 2026-05-05 01:54 | 41.28453 | 28.72932 | 332 ft | 14 kts | 126° |
| 2026-05-05 01:54 | 41.28353 | 28.72955 | 333 ft | 16 kts | 179° |
| 2026-05-05 01:54 | 41.28239 | 28.72957 | 332 ft | 17 kts | 179° |
| 2026-05-05 01:54 | 41.28115 | 28.72959 | 332 ft | 19 kts | 179° |
| 2026-05-05 01:55 | 41.27981 | 28.72962 | 333 ft | 20 kts | 178° |
| 2026-05-05 01:55 | 41.27839 | 28.72966 | 331 ft | 21 kts | 179° |
| 2026-05-05 01:55 | 41.27686 | 28.72970 | 334 ft | 23 kts | 179° |
| 2026-05-05 01:55 | 41.27525 | 28.72973 | 332 ft | 24 kts | 179° |
| 2026-05-05 01:56 | 41.27355 | 28.72977 | 332 ft | 25 kts | 178° |
| 2026-05-05 01:56 | 41.27178 | 28.72982 | 332 ft | 26 kts | 179° |
| 2026-05-05 01:56 | 41.27031 | 28.72985 | 333 ft | 13 kts | 179° |
| 2026-05-05 01:56 | 41.26954 | 28.73034 | 330 ft | 14 kts | 105° |
| 2026-05-05 01:57 | 41.26954 | 28.73168 | 334 ft | 15 kts | 89° |
| 2026-05-05 01:57 | 41.26956 | 28.73316 | 334 ft | 17 kts | 89° |
| 2026-05-05 01:57 | 41.26959 | 28.73477 | 331 ft | 18 kts | 89° |
| 2026-05-05 01:57 | 41.26960 | 28.73619 | 334 ft | 9 kts | 89° |
| 2026-05-05 01:58 | 41.26961 | 28.73700 | 334 ft | 6 kts | 89° |
| 2026-05-05 01:58 | 41.26962 | 28.73719 | 334 ft | 0 kts | 89° |
| 2026-05-05 01:59 | 41.26962 | 28.73750 | 334 ft | 8 kts | 89° |
| 2026-05-05 01:59 | 41.26963 | 28.73838 | 334 ft | 10 kts | 89° |
| 2026-05-05 01:59 | 41.26965 | 28.73941 | 334 ft | 12 kts | 89° |
| 2026-05-05 01:59 | 41.26966 | 28.74060 | 334 ft | 14 kts | 89° |
| 2026-05-05 02:00 | 41.26968 | 28.74191 | 334 ft | 15 kts | 89° |
| 2026-05-05 02:00 | 41.26969 | 28.74336 | 334 ft | 16 kts | 89° |
| 2026-05-05 02:00 | 41.26948 | 28.74455 | 332 ft | 13 kts | 147° |
| 2026-05-05 02:00 | 41.26853 | 28.74466 | 330 ft | 15 kts | 179° |
| 2026-05-05 02:01 | 41.26746 | 28.74469 | 334 ft | 16 kts | 179° |
| 2026-05-05 02:01 | 41.26629 | 28.74471 | 333 ft | 18 kts | 179° |
| 2026-05-05 02:01 | 41.26511 | 28.74474 | 332 ft | 16 kts | 179° |
| 2026-05-05 02:01 | 41.26443 | 28.74473 | 329 ft | 9 kts | 187° |
| 2026-05-05 02:02 | 41.26397 | 28.74444 | 332 ft | 4 kts | 210° |
| 2026-05-05 02:02 | 41.26375 | 28.74427 | 329 ft | 3 kts | 211° |
| 2026-05-05 02:02 | 41.26363 | 28.74418 | 334 ft | 2 kts | 211° |
| 2026-05-05 02:02 | 41.26357 | 28.74413 | 330 ft | 0 kts | 211° |